createdAt,value
2016-11-22T00:00:19.830Z,995.18
2016-11-22T00:01:34.550Z,995.14
2016-11-22T00:02:51.751Z,995.15
2016-11-22T00:04:05.044Z,995.11
2016-11-22T00:05:19.506Z,995.18
2016-11-22T00:06:36.067Z,995.25
2016-11-22T00:07:49.122Z,995.32
2016-11-22T00:09:05.451Z,995.25
2016-11-22T00:10:21.619Z,995.27
2016-11-22T00:11:38.431Z,995.41
2016-11-22T00:12:52.985Z,995.39
2016-11-22T00:14:08.636Z,995.38
2016-11-22T00:15:24.665Z,995.43
2016-11-22T00:16:38.226Z,995.48
2016-11-22T00:17:54.118Z,995.48
2016-11-22T00:19:10.010Z,995.48
2016-11-22T00:20:24.688Z,995.53
2016-11-22T00:21:40.580Z,995.52
2016-11-22T00:22:57.337Z,995.52
2016-11-22T00:24:13.898Z,995.49
2016-11-22T00:25:27.609Z,995.42
2016-11-22T00:26:44.037Z,995.37
2016-11-22T00:28:00.161Z,995.36
2016-11-22T00:29:13.570Z,995.37
2016-11-22T00:30:27.044Z,995.34
2016-11-22T00:31:41.948Z,995.38
2016-11-22T00:32:56.432Z,995.37
2016-11-22T00:34:09.973Z,995.43
2016-11-22T00:35:25.200Z,995.55
2016-11-22T00:36:40.081Z,995.56
2016-11-22T00:37:57.324Z,995.52
2016-11-22T00:39:12.201Z,995.51
2016-11-22T00:40:27.364Z,995.49
2016-11-22T00:41:43.843Z,995.42
2016-11-22T00:42:58.829Z,995.38
2016-11-22T00:44:14.858Z,995.34
2016-11-22T00:45:31.539Z,995.25
2016-11-22T00:46:48.516Z,995.2
2016-11-22T00:48:00.492Z,995.19
2016-11-22T00:49:16.372Z,995.12
2016-11-22T00:50:30.741Z,995.13
2016-11-22T00:51:47.580Z,995.13
2016-11-22T00:53:02.251Z,995.11
2016-11-22T00:54:15.240Z,995.15
2016-11-22T00:55:32.352Z,995.07
2016-11-22T00:56:48.020Z,995.05
2016-11-22T00:58:04.353Z,995.03
2016-11-22T00:59:19.056Z,995.04
2016-11-22T01:00:35.999Z,994.96
2016-11-22T01:01:51.382Z,994.97
2016-11-22T01:03:08.284Z,995.04
2016-11-22T01:04:24.561Z,995.03
2016-11-22T01:05:41.669Z,995.17
2016-11-22T01:06:57.852Z,995.15
2016-11-22T01:08:13.784Z,995.04
2016-11-22T01:09:30.726Z,995.13
2016-11-22T01:10:45.815Z,995.18
2016-11-22T01:12:03.123Z,995.25
2016-11-22T01:13:17.177Z,995.32
2016-11-22T01:14:33.796Z,995.24
2016-11-22T01:15:48.893Z,995.18
2016-11-22T01:17:02.709Z,995.2
2016-11-22T01:18:19.013Z,995.2
2016-11-22T01:19:34.886Z,995.21
2016-11-22T01:20:51.809Z,995.13
2016-11-22T01:22:07.962Z,995.12
2016-11-22T01:23:22.675Z,995.22
2016-11-22T01:24:38.834Z,995.26
2016-11-22T01:25:55.089Z,995.32
2016-11-22T01:27:11.352Z,995.23
2016-11-22T01:28:27.668Z,995.23
2016-11-22T01:29:43.702Z,995.26
2016-11-22T01:30:59.185Z,995.28
2016-11-22T01:32:13.673Z,995.35
2016-11-22T01:33:29.843Z,995.28
2016-11-22T01:34:44.798Z,995.37
2016-11-22T01:36:01.329Z,995.33
2016-11-22T01:37:18.182Z,995.2
2016-11-22T01:38:34.474Z,995.32
2016-11-22T01:39:47.915Z,995.29
2016-11-22T01:41:03.654Z,995.4
2016-11-22T01:42:18.942Z,995.29
2016-11-22T01:43:34.256Z,995.29
2016-11-22T01:44:49.376Z,995.3
2016-11-22T01:46:05.676Z,995.33
2016-11-22T01:47:21.837Z,995.37
2016-11-22T01:48:36.538Z,995.45
2016-11-22T01:49:52.679Z,995.4
2016-11-22T01:51:09.201Z,995.38
2016-11-22T01:52:25.739Z,995.37
2016-11-22T01:53:38.770Z,995.39
2016-11-22T01:54:55.612Z,995.47
2016-11-22T01:56:10.438Z,995.59
2016-11-22T01:57:23.841Z,995.61
2016-11-22T01:58:38.879Z,995.61
2016-11-22T01:59:52.574Z,995.55
2016-11-22T02:01:09.150Z,995.49
2016-11-22T02:02:25.567Z,995.49
2016-11-22T02:03:41.629Z,995.41
2016-11-22T02:04:58.244Z,995.37
2016-11-22T02:06:15.174Z,995.39
2016-11-22T02:07:29.958Z,995.32
2016-11-22T02:08:44.225Z,995.27
2016-11-22T02:09:59.206Z,995.32
2016-11-22T02:11:15.152Z,995.28
2016-11-22T02:12:30.721Z,995.23
2016-11-22T02:13:45.394Z,995.16
2016-11-22T02:15:02.114Z,995.15
2016-11-22T02:16:17.752Z,995.15
2016-11-22T02:17:34.436Z,995.12
2016-11-22T02:18:49.532Z,995.19
2016-11-22T02:20:05.120Z,995.12
2016-11-22T02:21:21.238Z,995.12
2016-11-22T02:22:36.148Z,995.22
2016-11-22T02:23:53.080Z,995.15
2016-11-22T02:25:07.742Z,995.21
2016-11-22T02:26:22.563Z,995.24
2016-11-22T02:27:39.102Z,995.3
2016-11-22T02:28:55.050Z,995.27
2016-11-22T02:30:09.982Z,995.15
2016-11-22T02:31:24.353Z,995.25
2016-11-22T02:32:38.879Z,995.17
2016-11-22T02:33:52.530Z,995.04
2016-11-22T02:35:07.999Z,995.04
2016-11-22T02:36:24.711Z,995.05
2016-11-22T02:37:39.537Z,995.18
2016-11-22T02:38:53.848Z,995.17
2016-11-22T02:40:08.777Z,995.18
2016-11-22T02:41:24.520Z,995.13
2016-11-22T02:42:39.262Z,995.03
2016-11-22T02:43:52.914Z,994.95
2016-11-22T02:45:08.119Z,995.17
2016-11-22T02:46:23.748Z,995.08
2016-11-22T02:47:40.573Z,995.35
2016-11-22T02:48:56.962Z,995.67
2016-11-22T02:50:10.303Z,995.79
2016-11-22T02:51:27.262Z,995.79
2016-11-22T02:52:43.561Z,995.88
2016-11-22T02:53:59.597Z,995.98
2016-11-22T02:55:14.278Z,995.98
2016-11-22T02:56:29.567Z,995.99
2016-11-22T02:57:44.256Z,995.99
2016-11-22T02:59:00.517Z,996.03
2016-11-22T03:00:16.460Z,996.04
2016-11-22T03:01:32.513Z,996.11
2016-11-22T03:02:48.643Z,996.07
2016-11-22T03:04:05.171Z,996.09
2016-11-22T03:05:21.018Z,996.13
2016-11-22T03:06:36.918Z,996.09
2016-11-22T03:07:51.535Z,996.15
2016-11-22T03:09:06.344Z,996.14
2016-11-22T03:10:22.063Z,996.13
2016-11-22T03:11:37.204Z,996.08
2016-11-22T03:12:50.834Z,996.09
2016-11-22T03:14:07.042Z,996.04
2016-11-22T03:15:23.024Z,996.01
2016-11-22T03:16:39.486Z,995.97
2016-11-22T03:17:56.163Z,995.97
2016-11-22T03:19:09.498Z,995.93
2016-11-22T03:20:25.721Z,995.86
2016-11-22T03:21:42.000Z,995.87
2016-11-22T03:22:57.101Z,995.88
2016-11-22T03:24:13.132Z,995.92
2016-11-22T03:25:27.795Z,996
2016-11-22T03:26:39.857Z,996.14
2016-11-22T03:27:54.513Z,996.19
2016-11-22T03:29:11.397Z,996.22
2016-11-22T03:30:28.276Z,996.25
2016-11-22T03:31:44.777Z,996.24
2016-11-22T03:33:01.601Z,996.21
2016-11-22T03:34:16.695Z,996.16
2016-11-22T03:35:31.626Z,996.22
2016-11-22T03:36:48.450Z,996.25
2016-11-22T03:38:03.332Z,996.15
2016-11-22T03:39:19.475Z,996.14
2016-11-22T03:40:35.721Z,996.2
2016-11-22T03:41:51.011Z,996.19
2016-11-22T03:43:02.753Z,996.18
2016-11-22T03:44:19.048Z,996.12
2016-11-22T03:45:34.133Z,996.12
2016-11-22T03:46:50.547Z,996.04
2016-11-22T03:48:07.074Z,996.09
2016-11-22T03:49:23.270Z,996.15
2016-11-22T03:50:38.174Z,996.24
2016-11-22T03:51:54.311Z,996.22
2016-11-22T03:53:07.362Z,996.22
2016-11-22T03:54:22.512Z,996.19
2016-11-22T03:55:38.776Z,996.16
2016-11-22T03:56:54.825Z,996.16
2016-11-22T03:58:10.530Z,996.19
2016-11-22T03:59:26.684Z,996.15
2016-11-22T04:00:41.616Z,996.25
2016-11-22T04:01:56.361Z,996.24
2016-11-22T04:03:11.486Z,996.27
2016-11-22T04:04:26.965Z,996.33
2016-11-22T04:05:42.303Z,996.27
2016-11-22T04:06:58.684Z,996.26
2016-11-22T04:08:14.972Z,996.27
2016-11-22T04:09:31.388Z,996.27
2016-11-22T04:10:44.355Z,996.33
2016-11-22T04:11:58.778Z,996.34
2016-11-22T04:13:15.243Z,996.49
2016-11-22T04:14:30.192Z,996.64
2016-11-22T04:15:46.726Z,996.66
2016-11-22T04:17:00.502Z,996.61
2016-11-22T04:18:15.320Z,996.64
2016-11-22T04:19:31.210Z,996.68
2016-11-22T04:20:47.749Z,996.75
2016-11-22T04:22:03.801Z,996.75
2016-11-22T04:23:19.008Z,996.76
2016-11-22T04:24:35.372Z,996.81
2016-11-22T04:25:48.913Z,996.8
2016-11-22T04:27:03.192Z,996.86
2016-11-22T04:28:19.121Z,996.8
2016-11-22T04:29:34.985Z,996.72
2016-11-22T04:30:47.716Z,996.77
2016-11-22T04:32:02.539Z,996.72
2016-11-22T04:33:18.669Z,996.59
2016-11-22T04:34:34.568Z,996.48
2016-11-22T04:35:50.622Z,996.45
2016-11-22T04:37:06.442Z,996.45
2016-11-22T04:38:22.681Z,996.54
2016-11-22T04:39:35.909Z,996.65
2016-11-22T04:40:52.243Z,996.81
2016-11-22T04:42:07.550Z,996.98
2016-11-22T04:43:21.967Z,997.08
2016-11-22T04:44:38.087Z,997.31
2016-11-22T04:45:54.099Z,997.48
2016-11-22T04:47:09.117Z,997.67
2016-11-22T04:48:24.034Z,997.73
2016-11-22T04:49:41.285Z,997.75
2016-11-22T04:50:56.290Z,997.75
2016-11-22T04:52:12.415Z,997.76
2016-11-22T04:53:28.643Z,997.79
2016-11-22T04:54:42.632Z,997.83
2016-11-22T04:55:59.581Z,997.79
2016-11-22T04:57:15.741Z,997.73
2016-11-22T04:58:32.464Z,997.72
2016-11-22T04:59:44.454Z,997.61
2016-11-22T05:00:59.226Z,997.55
2016-11-22T05:02:14.870Z,997.51
2016-11-22T05:03:29.570Z,997.48
2016-11-22T05:04:44.637Z,997.4
2016-11-22T05:06:01.760Z,997.37
2016-11-22T05:07:18.030Z,997.33
2016-11-22T05:08:34.889Z,997.28
2016-11-22T05:09:49.801Z,997.44
2016-11-22T05:11:06.659Z,997.4
2016-11-22T05:12:22.996Z,997.36
2016-11-22T05:13:39.072Z,997.27
2016-11-22T05:14:55.435Z,997.27
2016-11-22T05:16:10.762Z,997.25
2016-11-22T05:17:23.942Z,997.23
2016-11-22T05:18:39.999Z,997.16
2016-11-22T05:19:51.514Z,997.1
2016-11-22T05:21:07.420Z,997.21
2016-11-22T05:22:22.420Z,997.22
2016-11-22T05:23:38.942Z,997.19
2016-11-22T05:24:55.237Z,997.13
2016-11-22T05:26:10.312Z,997.13
2016-11-22T05:27:26.715Z,997.28
2016-11-22T05:28:41.211Z,997.4
2016-11-22T05:29:55.904Z,997.35
2016-11-22T05:31:10.353Z,997.25
2016-11-22T05:32:25.998Z,997.19
2016-11-22T05:33:42.168Z,997.13
2016-11-22T05:34:59.307Z,997.18
2016-11-22T05:36:11.396Z,997.27
2016-11-22T05:37:27.834Z,997.39
2016-11-22T05:38:42.104Z,997.48
2016-11-22T05:39:57.108Z,997.55
2016-11-22T05:41:13.392Z,997.64
2016-11-22T05:42:29.321Z,997.61
2016-11-22T05:43:45.443Z,997.57
2016-11-22T05:45:00.918Z,997.6
2016-11-22T05:46:16.985Z,997.64
2016-11-22T05:47:33.870Z,997.72
2016-11-22T05:48:50.028Z,997.85
2016-11-22T05:50:05.503Z,997.91
2016-11-22T05:51:21.776Z,998
2016-11-22T05:52:38.544Z,997.91
2016-11-22T05:53:54.415Z,997.89
2016-11-22T05:55:07.803Z,997.96
2016-11-22T05:56:23.060Z,997.94
2016-11-22T05:57:40.120Z,998.03
2016-11-22T05:58:55.249Z,998.07
2016-11-22T06:00:11.954Z,998.1
2016-11-22T06:01:28.531Z,998.07
2016-11-22T06:02:44.871Z,998.08
2016-11-22T06:03:59.806Z,998.03
2016-11-22T06:05:15.111Z,998.05
2016-11-22T06:06:28.568Z,998.11
2016-11-22T06:07:44.962Z,998.11
2016-11-22T06:08:59.457Z,998.17
2016-11-22T06:10:14.621Z,998.17
2016-11-22T06:11:29.623Z,998.22
2016-11-22T06:12:44.586Z,998.26
2016-11-22T06:14:00.717Z,998.27
2016-11-22T06:15:15.905Z,998.34
2016-11-22T06:16:32.634Z,998.38
2016-11-22T06:17:47.460Z,998.31
2016-11-22T06:19:03.101Z,998.29
2016-11-22T06:20:17.356Z,998.3
2016-11-22T06:21:32.878Z,998.24
2016-11-22T06:22:48.020Z,998.24
2016-11-22T06:24:03.766Z,998.26
2016-11-22T06:25:19.243Z,998.28
2016-11-22T06:26:35.786Z,998.23
2016-11-22T06:27:52.873Z,998.25
2016-11-22T06:29:07.270Z,998.21
2016-11-22T06:30:24.390Z,998.2
2016-11-22T06:31:39.883Z,998.19
2016-11-22T06:32:56.601Z,998.29
2016-11-22T06:34:13.282Z,998.31
2016-11-22T06:35:29.494Z,998.48
2016-11-22T06:36:44.505Z,998.5
2016-11-22T06:38:00.500Z,998.52
2016-11-22T06:39:17.274Z,998.55
2016-11-22T06:40:33.545Z,998.56
2016-11-22T06:41:49.685Z,998.55
2016-11-22T06:43:06.141Z,998.66
2016-11-22T06:44:21.144Z,998.68
2016-11-22T06:45:37.459Z,998.72
2016-11-22T06:46:54.004Z,998.7
2016-11-22T06:48:10.424Z,998.72
2016-11-22T06:49:26.487Z,998.72
2016-11-22T06:50:40.095Z,998.8
2016-11-22T06:51:55.879Z,998.88
2016-11-22T06:53:10.988Z,998.91
2016-11-22T06:54:27.729Z,998.94
2016-11-22T06:55:42.554Z,998.99
2016-11-22T06:56:59.197Z,999
2016-11-22T06:58:12.808Z,999.01
2016-11-22T06:59:29.133Z,999
2016-11-22T07:00:44.137Z,998.97
2016-11-22T07:02:00.854Z,999.05
2016-11-22T07:03:17.429Z,999.03
2016-11-22T07:04:32.926Z,998.95
2016-11-22T07:05:49.707Z,998.94
2016-11-22T07:07:06.128Z,998.96
2016-11-22T07:08:20.943Z,999.01
2016-11-22T07:09:37.619Z,999.01
2016-11-22T07:10:54.062Z,999.05
2016-11-22T07:12:09.137Z,999.1
2016-11-22T07:13:26.051Z,999.12
2016-11-22T07:14:41.308Z,999.18
2016-11-22T07:15:55.873Z,999.19
2016-11-22T07:17:11.366Z,999.26
2016-11-22T07:18:27.633Z,999.3
2016-11-22T07:19:43.530Z,999.32
2016-11-22T07:20:57.823Z,999.4
2016-11-22T07:22:13.845Z,999.44
2016-11-22T07:23:30.340Z,999.44
2016-11-22T07:24:43.815Z,999.43
2016-11-22T07:25:58.357Z,999.41
2016-11-22T07:27:14.529Z,999.44
2016-11-22T07:28:29.865Z,999.48
2016-11-22T07:29:46.037Z,999.52
2016-11-22T07:31:01.938Z,999.59
2016-11-22T07:32:16.674Z,999.6
2016-11-22T07:33:31.344Z,999.7
2016-11-22T07:34:47.392Z,999.71
2016-11-22T07:36:01.923Z,999.74
2016-11-22T07:37:16.479Z,999.72
2016-11-22T07:38:31.295Z,999.73
2016-11-22T07:39:47.346Z,999.66
2016-11-22T07:41:03.917Z,999.66
2016-11-22T07:42:20.246Z,999.71
2016-11-22T07:43:35.183Z,999.78
2016-11-22T07:44:50.660Z,999.83
2016-11-22T07:46:06.541Z,999.86
2016-11-22T07:47:21.223Z,999.82
2016-11-22T07:48:38.359Z,999.78
2016-11-22T07:49:53.232Z,999.8
2016-11-22T07:51:06.955Z,999.82
2016-11-22T07:52:20.466Z,999.88
2016-11-22T07:53:37.255Z,1000
2016-11-22T07:54:52.800Z,1000
2016-11-22T07:56:06.262Z,1000.01
2016-11-22T07:57:20.905Z,1000.01
2016-11-22T07:58:34.746Z,1000.06
2016-11-22T07:59:49.695Z,1000.09
2016-11-22T08:01:04.514Z,1000.07
2016-11-22T08:02:20.980Z,1000.1
2016-11-22T08:03:35.974Z,1000.09
2016-11-22T08:04:52.741Z,1000.18
2016-11-22T08:06:09.724Z,1000.2
2016-11-22T08:07:25.823Z,1000.23
2016-11-22T08:08:42.737Z,1000.15
2016-11-22T08:09:55.954Z,1000.22
2016-11-22T08:11:10.898Z,1000.28
2016-11-22T08:12:26.448Z,1000.31
2016-11-22T08:13:41.620Z,1000.32
2016-11-22T08:14:56.860Z,1000.4
2016-11-22T08:16:11.659Z,1000.34
2016-11-22T08:17:26.580Z,1000.3
2016-11-22T08:18:43.270Z,1000.3
2016-11-22T08:19:58.015Z,1000.34
2016-11-22T08:21:13.108Z,1000.34
2016-11-22T08:22:29.413Z,1000.35
2016-11-22T08:23:46.164Z,1000.41
2016-11-22T08:25:00.681Z,1000.4
2016-11-22T08:26:15.620Z,1000.43
2016-11-22T08:27:32.338Z,1000.44
2016-11-22T08:28:47.592Z,1000.52
2016-11-22T08:29:59.593Z,1000.54
2016-11-22T08:31:15.725Z,1000.54
2016-11-22T08:32:31.447Z,1000.54
2016-11-22T08:33:46.526Z,1000.59
2016-11-22T08:35:02.003Z,1000.67
2016-11-22T08:36:12.687Z,1000.64
2016-11-22T08:37:28.737Z,1000.65
2016-11-22T08:38:45.332Z,1000.66
2016-11-22T08:40:01.215Z,1000.68
2016-11-22T08:41:14.601Z,1000.66
2016-11-22T08:42:29.759Z,1000.69
2016-11-22T08:43:45.813Z,1000.75
2016-11-22T08:44:59.767Z,1000.75
2016-11-22T08:46:14.783Z,1000.76
2016-11-22T08:47:31.244Z,1000.86
2016-11-22T08:48:45.969Z,1000.84
2016-11-22T08:50:02.034Z,1000.86
2016-11-22T08:51:16.749Z,1000.83
2016-11-22T08:52:32.242Z,1000.89
2016-11-22T08:53:47.054Z,1000.89
2016-11-22T08:55:01.559Z,1000.97
2016-11-22T08:56:17.929Z,1001.01
2016-11-22T08:57:33.612Z,1000.95
2016-11-22T08:58:50.575Z,1000.98
2016-11-22T09:00:05.244Z,1000.98
2016-11-22T09:01:20.753Z,1001.01
2016-11-22T09:02:37.440Z,1001.02
2016-11-22T09:03:53.566Z,1001.03
2016-11-22T09:05:08.392Z,1001.08
2016-11-22T09:06:23.633Z,1001.08
2016-11-22T09:07:39.937Z,1001.12
2016-11-22T09:08:56.623Z,1001.19
2016-11-22T09:10:11.817Z,1001.23
2016-11-22T09:11:28.366Z,1001.27
2016-11-22T09:12:45.356Z,1001.27
2016-11-22T09:14:01.107Z,1001.27
2016-11-22T09:15:16.350Z,1001.26
2016-11-22T09:16:32.817Z,1001.27
2016-11-22T09:17:48.895Z,1001.26
2016-11-22T09:19:03.693Z,1001.28
2016-11-22T09:20:18.533Z,1001.28
2016-11-22T09:21:33.602Z,1001.3
2016-11-22T09:22:50.428Z,1001.4
2016-11-22T09:24:04.929Z,1001.52
2016-11-22T09:25:21.388Z,1001.58
2016-11-22T09:26:37.271Z,1001.68
2016-11-22T09:27:53.717Z,1001.74
2016-11-22T09:29:08.343Z,1001.71
2016-11-22T09:30:21.876Z,1001.75
2016-11-22T09:31:37.016Z,1001.78
2016-11-22T09:32:53.731Z,1001.78
2016-11-22T09:34:10.268Z,1001.82
2016-11-22T09:35:25.207Z,1001.83
2016-11-22T09:36:36.825Z,1001.9
2016-11-22T09:37:50.027Z,1001.98
2016-11-22T09:39:06.992Z,1001.94
2016-11-22T09:40:23.032Z,1001.94
2016-11-22T09:41:38.337Z,1001.9
2016-11-22T09:42:52.403Z,1001.91
2016-11-22T09:44:09.162Z,1001.95
2016-11-22T09:45:24.041Z,1002.01
2016-11-22T09:46:40.634Z,1001.97
2016-11-22T09:47:56.819Z,1002.06
2016-11-22T09:49:13.461Z,1002.03
2016-11-22T09:50:29.364Z,1002.07
2016-11-22T09:51:46.419Z,1002.05
2016-11-22T09:53:02.946Z,1002.04
2016-11-22T09:54:19.226Z,1002.12
2016-11-22T09:55:33.034Z,1002.17
2016-11-22T09:56:49.587Z,1002.19
2016-11-22T09:58:03.150Z,1002.23
2016-11-22T09:59:16.601Z,1002.27
2016-11-22T10:00:31.310Z,1002.24
2016-11-22T10:01:44.457Z,1002.25
2016-11-22T10:03:01.098Z,1002.29
2016-11-22T10:04:16.541Z,1002.24
2016-11-22T10:05:31.833Z,1002.24
2016-11-22T10:06:47.894Z,1002.24
2016-11-22T10:08:02.938Z,1002.24
2016-11-22T10:09:19.519Z,1002.2
2016-11-22T10:10:35.618Z,1002.23
2016-11-22T10:11:51.928Z,1002.22
2016-11-22T10:13:07.898Z,1002.2
2016-11-22T10:14:24.115Z,1002.2
2016-11-22T10:15:39.041Z,1002.22
2016-11-22T10:16:55.236Z,1002.25
2016-11-22T10:18:10.244Z,1002.29
2016-11-22T10:19:23.892Z,1002.27
2016-11-22T10:20:38.895Z,1002.32
2016-11-22T10:21:54.163Z,1002.35
2016-11-22T10:23:09.061Z,1002.36
2016-11-22T10:24:24.990Z,1002.35
2016-11-22T10:25:41.698Z,1002.33
2016-11-22T10:26:58.391Z,1002.31
2016-11-22T10:28:14.478Z,1002.34
2016-11-22T10:29:29.585Z,1002.33
2016-11-22T10:30:46.549Z,1002.37
2016-11-22T10:32:01.647Z,1002.37
2016-11-22T10:33:17.528Z,1002.36
2016-11-22T10:34:33.967Z,1002.39
2016-11-22T10:35:48.637Z,1002.39
2016-11-22T10:37:03.308Z,1002.43
2016-11-22T10:38:18.144Z,1002.45
2016-11-22T10:39:33.555Z,1002.4
2016-11-22T10:40:49.782Z,1002.37
2016-11-22T10:42:04.652Z,1002.42
2016-11-22T10:43:17.791Z,1002.43
2016-11-22T10:44:34.102Z,1002.41
2016-11-22T10:45:50.785Z,1002.44
2016-11-22T10:47:05.885Z,1002.44
2016-11-22T10:48:20.556Z,1002.47
2016-11-22T10:49:36.076Z,1002.44
2016-11-22T10:50:52.537Z,1002.41
2016-11-22T10:52:09.521Z,1002.43
2016-11-22T10:53:24.354Z,1002.52
2016-11-22T10:54:38.724Z,1002.53
2016-11-22T10:55:53.389Z,1002.53
2016-11-22T10:57:08.306Z,1002.54
2016-11-22T10:58:25.138Z,1002.57
2016-11-22T10:59:41.429Z,1002.6
2016-11-22T11:00:55.912Z,1002.52
2016-11-22T11:02:12.771Z,1002.6
2016-11-22T11:03:29.301Z,1002.62
2016-11-22T11:04:46.028Z,1002.67
2016-11-22T11:06:01.101Z,1002.63
2016-11-22T11:07:15.842Z,1002.68
2016-11-22T11:08:32.740Z,1002.61
2016-11-22T11:09:47.259Z,1002.63
2016-11-22T11:11:01.918Z,1002.61
2016-11-22T11:12:16.365Z,1002.64
2016-11-22T11:13:32.639Z,1002.59
2016-11-22T11:14:49.204Z,1002.58
2016-11-22T11:16:04.743Z,1002.59
2016-11-22T11:17:20.875Z,1002.58
2016-11-22T11:18:34.740Z,1002.49
2016-11-22T11:19:51.481Z,1002.46
2016-11-22T11:21:06.230Z,1002.55
2016-11-22T11:22:22.145Z,1002.49
2016-11-22T11:23:37.216Z,1002.53
2016-11-22T11:24:52.088Z,1002.57
2016-11-22T11:26:08.860Z,1002.57
2016-11-22T11:27:23.394Z,1002.51
2016-11-22T11:28:40.194Z,1002.5
2016-11-22T11:29:56.391Z,1002.49
2016-11-22T11:31:11.668Z,1002.53
2016-11-22T11:32:28.491Z,1002.51
2016-11-22T11:33:44.957Z,1002.59
2016-11-22T11:34:59.672Z,1002.58
2016-11-22T11:36:12.824Z,1002.62
2016-11-22T11:37:29.102Z,1002.63
2016-11-22T11:38:45.951Z,1002.64
2016-11-22T11:40:02.662Z,1002.64
2016-11-22T11:41:19.112Z,1002.71
2016-11-22T11:42:33.787Z,1002.74
2016-11-22T11:43:48.209Z,1002.69
2016-11-22T11:45:01.144Z,1002.68
2016-11-22T11:46:17.457Z,1002.71
2016-11-22T11:47:32.143Z,1002.76
2016-11-22T11:48:48.592Z,1002.69
2016-11-22T11:50:02.475Z,1002.76
2016-11-22T11:51:17.503Z,1002.75
2016-11-22T11:52:33.422Z,1002.73
2016-11-22T11:53:50.605Z,1002.77
2016-11-22T11:55:05.281Z,1002.72
2016-11-22T11:56:21.786Z,1002.69
2016-11-22T11:57:35.384Z,1002.69
2016-11-22T11:58:51.858Z,1002.68
2016-11-22T12:00:04.692Z,1002.67
2016-11-22T12:01:19.362Z,1002.69
2016-11-22T12:02:34.970Z,1002.69
2016-11-22T12:03:49.563Z,1002.65
2016-11-22T12:05:06.139Z,1002.68
2016-11-22T12:06:22.417Z,1002.68
2016-11-22T12:07:38.487Z,1002.63
2016-11-22T12:08:54.908Z,1002.68
2016-11-22T12:10:11.196Z,1002.72
2016-11-22T12:11:26.530Z,1002.64
2016-11-22T12:12:41.187Z,1002.69
2016-11-22T12:13:54.934Z,1002.62
2016-11-22T12:15:11.454Z,1002.59
2016-11-22T12:16:26.626Z,1002.63
2016-11-22T12:17:41.679Z,1002.59
2016-11-22T12:18:56.198Z,1002.64
2016-11-22T12:20:11.998Z,1002.65
2016-11-22T12:21:28.386Z,1002.65
2016-11-22T12:22:45.028Z,1002.65
2016-11-22T12:24:01.744Z,1002.66
2016-11-22T12:25:16.037Z,1002.69
2016-11-22T12:26:30.789Z,1002.72
2016-11-22T12:27:47.491Z,1002.71
2016-11-22T12:29:02.143Z,1002.69
2016-11-22T12:30:18.225Z,1002.72
2016-11-22T12:31:32.087Z,1002.71
2016-11-22T12:32:48.333Z,1002.71
2016-11-22T12:34:04.309Z,1002.74
2016-11-22T12:35:20.854Z,1002.74
2016-11-22T12:36:37.169Z,1002.79
2016-11-22T12:37:53.407Z,1002.78
2016-11-22T12:39:09.497Z,1002.84
2016-11-22T12:40:24.968Z,1002.91
2016-11-22T12:41:39.884Z,1002.92
2016-11-22T12:42:56.878Z,1002.89
2016-11-22T12:44:11.769Z,1002.88
2016-11-22T12:45:28.651Z,1002.85
2016-11-22T12:46:45.981Z,1002.83
2016-11-22T12:48:02.313Z,1002.91
2016-11-22T12:49:18.026Z,1002.97
2016-11-22T12:50:31.332Z,1003.04
2016-11-22T12:51:47.903Z,1003.04
2016-11-22T12:53:04.619Z,1003.09
2016-11-22T12:54:19.514Z,1003.09
2016-11-22T12:55:35.434Z,1003.06
2016-11-22T12:56:52.108Z,1003.09
2016-11-22T12:58:07.111Z,1003.07
2016-11-22T12:59:24.401Z,1003.1
2016-11-22T13:00:40.706Z,1003.05
2016-11-22T13:01:55.709Z,1003.01
2016-11-22T13:03:12.611Z,1002.97
2016-11-22T13:04:28.669Z,1002.97
2016-11-22T13:05:45.162Z,1002.96
2016-11-22T13:06:59.942Z,1002.95
2016-11-22T13:08:14.837Z,1002.91
2016-11-22T13:09:31.133Z,1002.9
2016-11-22T13:10:45.822Z,1002.91
2016-11-22T13:12:02.223Z,1002.92
2016-11-22T13:13:18.974Z,1002.88
2016-11-22T13:14:35.691Z,1002.82
2016-11-22T13:15:49.349Z,1002.8
2016-11-22T13:17:05.624Z,1002.86
2016-11-22T13:18:20.803Z,1002.85
2016-11-22T13:19:37.388Z,1002.82
2016-11-22T13:20:53.945Z,1002.79
2016-11-22T13:22:10.944Z,1002.8
2016-11-22T13:23:24.400Z,1002.8
2016-11-22T13:24:40.930Z,1002.84
2016-11-22T13:25:56.809Z,1002.92
2016-11-22T13:27:11.765Z,1002.93
2016-11-22T13:28:28.066Z,1002.92
2016-11-22T13:29:43.756Z,1002.84
2016-11-22T13:30:58.525Z,1002.88
2016-11-22T13:32:15.298Z,1002.87
2016-11-22T13:33:31.869Z,1002.89
2016-11-22T13:34:47.139Z,1002.97
2016-11-22T13:36:03.593Z,1002.98
2016-11-22T13:37:18.743Z,1002.99
2016-11-22T13:38:35.501Z,1003.02
2016-11-22T13:39:50.748Z,1003.03
2016-11-22T13:41:02.581Z,1002.97
2016-11-22T13:42:18.873Z,1002.98
2016-11-22T13:43:33.139Z,1003.05
2016-11-22T13:44:47.843Z,1003.07
2016-11-22T13:46:04.510Z,1003.11
2016-11-22T13:47:21.108Z,1003.02
2016-11-22T13:48:36.588Z,1003.02
2016-11-22T13:49:53.717Z,1002.97
2016-11-22T13:51:10.423Z,1002.98
2016-11-22T13:52:27.278Z,1002.98
2016-11-22T13:53:43.590Z,1002.92
2016-11-22T13:54:58.413Z,1002.88
2016-11-22T13:56:12.439Z,1002.83
2016-11-22T13:57:28.735Z,1002.85
2016-11-22T13:58:45.438Z,1002.9
2016-11-22T14:00:00.305Z,1002.96
2016-11-22T14:01:15.960Z,1003.09
2016-11-22T14:02:32.585Z,1003.18
2016-11-22T14:03:47.449Z,1003.2
2016-11-22T14:05:04.589Z,1003.21
2016-11-22T14:06:17.897Z,1003.28
2016-11-22T14:07:33.916Z,1003.31
2016-11-22T14:08:50.936Z,1003.33
2016-11-22T14:10:05.366Z,1003.37
2016-11-22T14:11:20.587Z,1003.42
2016-11-22T14:12:37.330Z,1003.41
2016-11-22T14:13:49.173Z,1003.44
2016-11-22T14:15:05.640Z,1003.43
2016-11-22T14:16:22.203Z,1003.44
2016-11-22T14:17:38.682Z,1003.5
2016-11-22T14:18:54.429Z,1003.55
2016-11-22T14:20:10.984Z,1003.62
2016-11-22T14:21:27.495Z,1003.64
2016-11-22T14:22:42.423Z,1003.68
2016-11-22T14:23:56.875Z,1003.62
2016-11-22T14:25:12.044Z,1003.59
2016-11-22T14:26:28.353Z,1003.56
2016-11-22T14:27:43.763Z,1003.61
2016-11-22T14:28:58.623Z,1003.65
2016-11-22T14:30:15.481Z,1003.67
2016-11-22T14:31:30.084Z,1003.65
2016-11-22T14:32:45.053Z,1003.64
2016-11-22T14:34:00.184Z,1003.67
2016-11-22T14:35:17.199Z,1003.73
2016-11-22T14:36:33.382Z,1003.75
2016-11-22T14:37:50.177Z,1003.76
2016-11-22T14:39:04.803Z,1003.8
2016-11-22T14:40:21.109Z,1003.85
2016-11-22T14:41:36.375Z,1003.84
2016-11-22T14:42:51.057Z,1003.89
2016-11-22T14:44:07.378Z,1003.87
2016-11-22T14:45:22.395Z,1003.93
2016-11-22T14:46:39.503Z,1003.88
2016-11-22T14:47:55.783Z,1003.89
2016-11-22T14:49:11.864Z,1003.96
2016-11-22T14:50:28.148Z,1003.99
2016-11-22T14:51:43.102Z,1004.04
2016-11-22T14:52:59.532Z,1004.1
2016-11-22T14:54:14.004Z,1004.18
2016-11-22T14:55:30.551Z,1004.15
2016-11-22T14:56:47.228Z,1004.14
2016-11-22T14:58:03.984Z,1004.14
2016-11-22T14:59:19.957Z,1004.12
2016-11-22T15:00:36.512Z,1004.11
2016-11-22T15:01:50.129Z,1004.08
2016-11-22T15:03:05.366Z,1004.14
2016-11-22T15:04:21.936Z,1004.18
2016-11-22T15:05:38.587Z,1004.16
2016-11-22T15:06:53.515Z,1004.23
2016-11-22T15:08:08.617Z,1004.27
2016-11-22T15:09:25.658Z,1004.28
2016-11-22T15:10:42.245Z,1004.25
2016-11-22T15:11:56.683Z,1004.28
2016-11-22T15:13:12.605Z,1004.23
2016-11-22T15:14:28.658Z,1004.25
2016-11-22T15:15:44.565Z,1004.23
2016-11-22T15:17:00.841Z,1004.21
2016-11-22T15:18:16.422Z,1004.25
2016-11-22T15:19:31.355Z,1004.21
2016-11-22T15:20:48.159Z,1004.21
2016-11-22T15:22:03.525Z,1004.17
2016-11-22T15:23:20.201Z,1004.16
2016-11-22T15:24:37.291Z,1004.19
2016-11-22T15:25:51.740Z,1004.18
2016-11-22T15:27:05.623Z,1004.18
2016-11-22T15:28:20.530Z,1004.23
2016-11-22T15:29:36.657Z,1004.27
2016-11-22T15:30:53.141Z,1004.36